createdAt,value
2023-03-06T00:00:47.256Z,2.04
2023-03-06T00:03:14.757Z,2.00
2023-03-06T00:05:42.565Z,1.97
2023-03-06T00:08:09.657Z,2.01
2023-03-06T00:10:36.867Z,2.04
2023-03-06T00:13:06.664Z,2.08
2023-03-06T00:15:34.130Z,2.09
2023-03-06T00:18:04.448Z,2.09
2023-03-06T00:20:31.631Z,2.07
2023-03-06T00:22:58.774Z,2.05
2023-03-06T00:25:26.525Z,2.03
2023-03-06T00:27:53.708Z,2.07
2023-03-06T00:30:23.986Z,2.11
2023-03-06T00:32:53.420Z,2.15
2023-03-06T00:35:21.328Z,2.17
2023-03-06T00:37:48.624Z,2.16
2023-03-06T00:40:18.855Z,2.20
2023-03-06T00:42:46.522Z,2.23
2023-03-06T00:45:14.562Z,2.19
2023-03-06T00:47:42.183Z,2.18
2023-03-06T00:50:12.520Z,2.19
2023-03-06T00:52:40.850Z,2.16
2023-03-06T00:55:08.751Z,2.12
2023-03-06T00:57:35.913Z,2.07
2023-03-06T01:00:04.799Z,2.05
2023-03-06T01:02:32.116Z,1.98
2023-03-06T01:04:59.433Z,1.97
2023-03-06T01:07:28.255Z,2.03
2023-03-06T01:09:57.278Z,2.03
2023-03-06T01:12:24.615Z,2.07
2023-03-06T01:14:51.810Z,2.08
2023-03-06T01:17:19.035Z,2.12
2023-03-06T01:19:46.246Z,2.14
2023-03-06T01:22:14.333Z,2.14
2023-03-06T01:24:41.380Z,2.16
2023-03-06T01:27:08.520Z,2.15
2023-03-06T01:29:35.870Z,2.19
2023-03-06T01:32:03.228Z,2.21
2023-03-06T01:34:30.401Z,2.22
2023-03-06T01:36:57.581Z,2.24
2023-03-06T01:39:25.254Z,2.21
2023-03-06T01:41:52.391Z,2.18
2023-03-06T01:44:19.638Z,2.15
2023-03-06T01:46:47.441Z,2.07
2023-03-06T01:49:20.610Z,2.00
2023-03-06T01:52:18.747Z,2.00
2023-03-06T01:54:51.709Z,1.99
2023-03-06T01:57:26.556Z,2.00
2023-03-06T02:00:02.439Z,2.02
2023-03-06T02:02:44.187Z,2.02
2023-03-06T02:05:12.360Z,2.01
2023-03-06T02:07:43.034Z,2.06
2023-03-06T02:10:14.748Z,2.04
2023-03-06T02:12:44.032Z,2.00
2023-03-06T02:15:14.520Z,2.00
2023-03-06T02:17:44.413Z,1.99
2023-03-06T02:20:25.425Z,2.01
2023-03-06T02:23:05.479Z,2.05
2023-03-06T02:25:46.331Z,2.10
2023-03-06T02:28:17.501Z,2.13
2023-03-06T02:30:46.305Z,2.16
2023-03-06T02:33:16.230Z,2.20
2023-03-06T02:35:57.999Z,2.23
2023-03-06T02:38:44.405Z,2.26
2023-03-06T02:41:12.133Z,2.29
2023-03-06T02:43:41.284Z,2.31
2023-03-06T02:46:08.541Z,2.31
2023-03-06T02:48:35.782Z,2.32
2023-03-06T02:51:03.135Z,2.31
2023-03-06T02:53:30.466Z,2.31
2023-03-06T02:55:59.919Z,2.30
2023-03-06T02:58:27.198Z,2.27
2023-03-06T03:00:54.354Z,2.26
2023-03-06T03:03:21.910Z,2.22
2023-03-06T03:05:48.986Z,2.21
2023-03-06T03:08:29.218Z,2.16
2023-03-06T03:11:01.054Z,2.11
2023-03-06T03:13:33.633Z,2.08
2023-03-06T03:16:07.045Z,2.04
2023-03-06T03:18:34.880Z,2.01
2023-03-06T03:21:02.552Z,1.97
2023-03-06T03:23:29.828Z,1.96
2023-03-06T03:26:10.946Z,1.94
2023-03-06T03:28:41.668Z,1.92
2023-03-06T03:31:11.588Z,1.89
2023-03-06T03:33:40.081Z,1.87
2023-03-06T03:36:09.188Z,1.84
2023-03-06T03:38:40.770Z,1.82
2023-03-06T03:41:07.905Z,1.78
2023-03-06T03:43:35.675Z,1.72
2023-03-06T03:46:02.843Z,1.65
2023-03-06T03:48:30.072Z,1.58
2023-03-06T03:51:08.423Z,1.46
2023-03-06T03:53:39.756Z,1.42
2023-03-06T03:56:09.479Z,1.42
2023-03-06T03:58:44.101Z,1.43
2023-03-06T04:01:11.320Z,1.44
2023-03-06T04:03:38.637Z,1.44
2023-03-06T04:06:08.248Z,1.43
2023-03-06T04:08:36.096Z,1.42
2023-03-06T04:11:03.637Z,1.42
2023-03-06T04:13:32.738Z,1.41
2023-03-06T04:16:00.246Z,1.43
2023-03-06T04:18:30.164Z,1.40
2023-03-06T04:21:01.453Z,1.40
2023-03-06T04:23:28.785Z,1.45
2023-03-06T04:25:56.017Z,1.49
2023-03-06T04:28:23.986Z,1.53
2023-03-06T04:30:52.100Z,1.58
2023-03-06T04:33:20.631Z,1.57
2023-03-06T04:35:48.522Z,1.60
2023-03-06T04:38:21.345Z,1.61
2023-03-06T04:40:50.038Z,1.61
2023-03-06T04:43:17.350Z,1.62
2023-03-06T04:45:44.936Z,1.61
2023-03-06T04:48:18.150Z,1.60
2023-03-06T04:50:45.574Z,1.61
2023-03-06T04:53:14.754Z,1.64
2023-03-06T04:55:41.888Z,1.66
2023-03-06T04:58:10.302Z,1.66
2023-03-06T05:00:37.515Z,1.66
2023-03-06T05:03:04.837Z,1.65
2023-03-06T05:05:32.040Z,1.67
2023-03-06T05:07:59.171Z,1.70
2023-03-06T05:10:26.407Z,1.71
2023-03-06T05:12:53.646Z,1.73
2023-03-06T05:15:21.192Z,1.78
2023-03-06T05:17:48.391Z,1.81
2023-03-06T05:20:16.482Z,1.84
2023-03-06T05:22:44.135Z,1.81
2023-03-06T05:25:11.979Z,1.81
2023-03-06T05:27:39.594Z,1.80
2023-03-06T05:30:08.126Z,1.76
2023-03-06T05:32:35.893Z,1.69
2023-03-06T05:35:04.375Z,1.70
2023-03-06T05:37:31.800Z,1.63
2023-03-06T05:39:59.299Z,1.62
2023-03-06T05:42:28.681Z,1.61
2023-03-06T05:44:55.949Z,1.59
2023-03-06T05:47:23.160Z,1.56
2023-03-06T05:49:50.611Z,1.60
2023-03-06T05:52:18.067Z,1.65
2023-03-06T05:54:45.234Z,1.71
2023-03-06T05:57:12.386Z,1.77
2023-03-06T05:59:39.453Z,1.83
2023-03-06T06:02:06.704Z,1.91
2023-03-06T06:04:33.839Z,1.97
2023-03-06T06:07:01.863Z,2.03
2023-03-06T06:09:29.790Z,2.06
2023-03-06T06:12:00.147Z,2.09
2023-03-06T06:14:28.072Z,2.14
2023-03-06T06:16:55.388Z,2.13
2023-03-06T06:19:23.081Z,2.17
2023-03-06T06:21:54.175Z,2.13
2023-03-06T06:24:25.152Z,2.13
2023-03-06T06:26:54.469Z,2.12
2023-03-06T06:29:22.222Z,2.14
2023-03-06T06:31:50.167Z,2.15
2023-03-06T06:34:18.256Z,2.23
2023-03-06T06:36:45.406Z,2.31
2023-03-06T06:39:16.802Z,2.42
2023-03-06T06:42:00.069Z,2.44
2023-03-06T06:44:31.914Z,2.42
2023-03-06T06:47:22.004Z,2.40
2023-03-06T06:49:51.361Z,2.38
2023-03-06T06:52:19.051Z,2.31
2023-03-06T06:54:46.205Z,2.29
2023-03-06T06:57:13.568Z,2.27
2023-03-06T06:59:40.750Z,2.23
2023-03-06T07:02:08.192Z,2.22
2023-03-06T07:04:35.391Z,2.26
2023-03-06T07:07:02.609Z,2.32
2023-03-06T07:09:31.145Z,2.34
2023-03-06T07:11:58.463Z,2.41
2023-03-06T07:14:25.708Z,2.46
2023-03-06T07:16:52.819Z,2.53
2023-03-06T07:19:20.039Z,2.75
2023-03-06T07:21:47.409Z,2.95
2023-03-06T07:24:14.586Z,3.12
2023-03-06T07:26:47.038Z,3.31
2023-03-06T07:29:14.809Z,3.55
2023-03-06T07:31:41.971Z,3.69
2023-03-06T07:34:13.818Z,3.85
2023-03-06T07:36:41.340Z,3.98
2023-03-06T07:39:09.064Z,4.07
2023-03-06T07:41:36.495Z,4.16
2023-03-06T07:44:03.825Z,4.26
2023-03-06T07:46:31.091Z,4.34
2023-03-06T07:48:58.578Z,4.33
2023-03-06T07:51:26.022Z,4.49
2023-03-06T07:53:53.421Z,4.65
2023-03-06T07:56:20.535Z,4.84
2023-03-06T07:58:48.228Z,4.91
2023-03-06T08:01:18.576Z,5.11
2023-03-06T08:03:45.949Z,5.32
2023-03-06T08:06:22.237Z,5.42
2023-03-06T08:08:51.008Z,5.51
2023-03-06T08:11:21.640Z,5.58
2023-03-06T08:13:49.351Z,5.39
2023-03-06T08:16:17.801Z,5.47
2023-03-06T08:18:46.320Z,5.47
2023-03-06T08:21:17.176Z,5.49
2023-03-06T08:23:44.913Z,5.27
2023-03-06T08:26:15.342Z,5.48
2023-03-06T08:28:42.679Z,5.68
2023-03-06T08:31:12.918Z,5.79
2023-03-06T08:33:41.421Z,5.86
2023-03-06T08:36:08.844Z,5.87
2023-03-06T08:38:36.079Z,5.73
2023-03-06T08:41:03.395Z,5.60
2023-03-06T08:43:30.882Z,5.70
2023-03-06T08:45:59.461Z,5.78
2023-03-06T08:48:26.843Z,5.99
2023-03-06T08:50:54.210Z,6.11
2023-03-06T08:53:30.455Z,6.20
2023-03-06T08:56:04.154Z,6.23
2023-03-06T08:58:31.464Z,6.35
2023-03-06T09:00:59.357Z,6.50
2023-03-06T09:03:27.439Z,6.67
2023-03-06T09:05:54.597Z,6.63
2023-03-06T09:08:21.742Z,6.64
2023-03-06T09:10:48.987Z,6.36
2023-03-06T09:13:16.254Z,6.47
2023-03-06T09:15:43.320Z,6.64
2023-03-06T09:18:10.570Z,6.70
2023-03-06T09:20:37.767Z,6.76
2023-03-06T09:23:05.020Z,6.79
2023-03-06T09:25:32.245Z,6.99
2023-03-06T09:28:10.805Z,7.20
2023-03-06T09:30:41.363Z,7.47
2023-03-06T09:33:08.573Z,7.33
2023-03-06T09:35:35.864Z,7.45
2023-03-06T09:38:03.011Z,7.59
2023-03-06T09:40:59.101Z,7.75
2023-03-06T09:43:31.749Z,7.92
2023-03-06T09:45:59.757Z,7.41
2023-03-06T09:48:45.776Z,7.71
2023-03-06T09:51:21.688Z,7.79
2023-03-06T09:54:12.194Z,8.05
2023-03-06T09:56:43.330Z,8.25
2023-03-06T09:59:26.742Z,8.27
2023-03-06T10:01:56.726Z,8.51
2023-03-06T10:04:37.175Z,8.68
2023-03-06T10:07:14.306Z,8.55
2023-03-06T10:10:02.445Z,8.94
2023-03-06T10:12:35.746Z,8.80
2023-03-06T10:15:11.656Z,8.84
2023-03-06T10:17:41.482Z,8.20
2023-03-06T10:20:20.584Z,8.43
2023-03-06T10:23:12.341Z,8.65
2023-03-06T10:26:01.388Z,8.83
2023-03-06T10:28:42.791Z,9.11
2023-03-06T10:31:13.234Z,9.32
2023-03-06T10:33:55.598Z,9.27
2023-03-06T10:36:28.850Z,9.56
2023-03-06T10:38:58.537Z,9.08
2023-03-06T10:41:32.033Z,9.35
2023-03-06T10:44:05.152Z,9.36
2023-03-06T10:46:44.665Z,8.94
2023-03-06T10:49:28.716Z,9.05
2023-03-06T10:52:07.055Z,9.26
2023-03-06T10:54:37.998Z,9.42
2023-03-06T10:57:24.140Z,9.33
2023-03-06T10:59:55.816Z,9.33
2023-03-06T11:02:28.518Z,9.38
2023-03-06T11:04:57.648Z,9.17
2023-03-06T11:07:27.337Z,9.20
2023-03-06T11:09:58.108Z,9.07
2023-03-06T11:12:51.154Z,8.93
2023-03-06T11:15:21.318Z,8.60
2023-03-06T11:17:50.350Z,8.74
2023-03-06T11:20:49.951Z,8.70
2023-03-06T11:23:38.836Z,8.76
2023-03-06T11:26:17.876Z,8.70
2023-03-06T11:29:03.390Z,8.46
2023-03-06T11:32:10.413Z,8.39
2023-03-06T11:34:50.688Z,8.49
2023-03-06T11:37:37.793Z,8.45
2023-03-06T11:40:23.646Z,8.78
2023-03-06T11:43:03.220Z,8.78
2023-03-06T11:45:51.457Z,8.65
2023-03-06T11:48:25.334Z,8.43
2023-03-06T11:51:12.648Z,8.20
2023-03-06T11:53:40.634Z,8.61
2023-03-06T11:56:36.462Z,8.68
2023-03-06T11:59:22.802Z,8.60
2023-03-06T12:02:03.451Z,8.72
2023-03-06T12:04:54.578Z,8.08
2023-03-06T12:07:41.474Z,8.25
2023-03-06T12:10:24.723Z,8.32
2023-03-06T12:13:39.795Z,8.33
2023-03-06T12:16:25.926Z,8.26
2023-03-06T12:19:01.963Z,7.93
2023-03-06T12:21:56.254Z,7.81
2023-03-06T12:24:29.070Z,7.73
2023-03-06T12:27:27.615Z,7.67
2023-03-06T12:30:10.027Z,7.97
2023-03-06T12:32:58.138Z,8.09
2023-03-06T12:35:40.202Z,8.14
2023-03-06T12:38:56.607Z,8.17
2023-03-06T12:41:32.658Z,8.36
2023-03-06T12:44:11.744Z,8.10
2023-03-06T12:46:55.187Z,8.04
2023-03-06T12:49:32.441Z,7.82
2023-03-06T12:52:01.525Z,8.10
2023-03-06T12:54:31.750Z,8.40
2023-03-06T12:57:01.066Z,8.44
2023-03-06T12:59:55.064Z,8.70
2023-03-06T13:02:40.422Z,8.93
2023-03-06T13:05:38.103Z,9.08
2023-03-06T13:08:32.699Z,9.12
2023-03-06T13:11:16.530Z,9.43
2023-03-06T13:13:46.725Z,9.62
2023-03-06T13:16:33.224Z,9.58
2023-03-06T13:19:19.982Z,9.62
2023-03-06T13:21:55.857Z,9.17
2023-03-06T13:24:34.820Z,8.69
2023-03-06T13:27:06.164Z,8.70
2023-03-06T13:29:36.063Z,8.57
2023-03-06T13:32:03.319Z,8.89
2023-03-06T13:34:39.359Z,8.82
2023-03-06T13:37:23.347Z,8.93
2023-03-06T13:39:57.117Z,9.14
2023-03-06T13:42:28.688Z,8.99
2023-03-06T13:44:57.980Z,8.74
2023-03-06T13:47:31.301Z,8.88
2023-03-06T13:50:00.212Z,8.71
2023-03-06T13:52:54.288Z,8.68
2023-03-06T13:55:47.348Z,8.30
2023-03-06T13:58:30.766Z,7.97
2023-03-06T14:01:19.535Z,8.26
2023-03-06T14:04:02.623Z,8.31
2023-03-06T14:06:35.625Z,8.14
2023-03-06T14:09:07.115Z,8.23
2023-03-06T14:11:35.858Z,7.94
2023-03-06T14:14:03.476Z,7.93
2023-03-06T14:16:49.223Z,8.05
2023-03-06T14:19:19.005Z,8.22
2023-03-06T14:21:51.374Z,7.84
2023-03-06T14:24:36.090Z,7.71
2023-03-06T14:27:03.310Z,7.56
2023-03-06T14:29:33.845Z,7.76
2023-03-06T14:32:02.775Z,7.52
2023-03-06T14:34:33.275Z,7.73
2023-03-06T14:37:05.908Z,7.58
2023-03-06T14:39:44.290Z,7.44
2023-03-06T14:42:19.392Z,7.73
2023-03-06T14:45:00.663Z,7.62
2023-03-06T14:47:29.121Z,7.82
2023-03-06T14:50:26.103Z,7.49
2023-03-06T14:52:57.999Z,7.75
2023-03-06T14:55:27.855Z,7.72
2023-03-06T14:58:20.392Z,7.59
2023-03-06T15:00:55.054Z,7.52
2023-03-06T15:03:28.171Z,7.66
2023-03-06T15:05:56.332Z,7.78
2023-03-06T15:08:29.201Z,7.91
2023-03-06T15:11:07.610Z,7.64
2023-03-06T15:13:35.429Z,7.80
2023-03-06T15:16:05.865Z,7.48
2023-03-06T15:18:36.474Z,7.65
2023-03-06T15:21:20.120Z,7.72
2023-03-06T15:23:50.173Z,7.52
2023-03-06T15:26:29.441Z,7.61
2023-03-06T15:29:23.613Z,7.56
2023-03-06T15:31:51.005Z,7.59
2023-03-06T15:34:27.870Z,7.28
2023-03-06T15:36:58.072Z,7.23
2023-03-06T15:39:33.321Z,7.08
2023-03-06T15:42:09.366Z,6.94
2023-03-06T15:44:36.508Z,6.73
2023-03-06T15:47:08.712Z,6.67
2023-03-06T15:49:38.778Z,6.70
2023-03-06T15:52:07.204Z,6.69
2023-03-06T15:54:35.050Z,6.60
2023-03-06T15:57:08.757Z,6.56
2023-03-06T15:59:43.254Z,6.66
2023-03-06T16:02:19.696Z,6.69
2023-03-06T16:04:47.769Z,6.69
2023-03-06T16:07:16.068Z,6.46
2023-03-06T16:09:43.623Z,6.38
2023-03-06T16:12:21.782Z,6.38
2023-03-06T16:14:49.465Z,6.42
2023-03-06T16:17:17.498Z,6.30
2023-03-06T16:19:44.856Z,6.28
2023-03-06T16:22:12.462Z,6.30
2023-03-06T16:24:39.568Z,6.29
2023-03-06T16:27:07.238Z,6.22
2023-03-06T16:29:35.328Z,6.20
2023-03-06T16:32:02.533Z,6.09
2023-03-06T16:34:29.743Z,5.96
2023-03-06T16:36:56.878Z,5.95
2023-03-06T16:39:24.615Z,5.87
2023-03-06T16:41:52.503Z,5.87
2023-03-06T16:44:20.450Z,5.80
2023-03-06T16:46:50.366Z,5.82
2023-03-06T16:49:25.501Z,5.73
2023-03-06T16:51:53.863Z,5.75
2023-03-06T16:54:23.581Z,5.76
2023-03-06T16:56:50.698Z,5.75
2023-03-06T16:59:17.827Z,5.74
2023-03-06T17:01:45.097Z,5.61
2023-03-06T17:04:12.415Z,5.53
2023-03-06T17:06:42.127Z,5.41
2023-03-06T17:09:11.475Z,5.32
2023-03-06T17:11:43.619Z,5.21
2023-03-06T17:14:10.759Z,5.06
2023-03-06T17:16:40.609Z,4.96
2023-03-06T17:19:08.817Z,4.87
2023-03-06T17:21:38.661Z,4.80
2023-03-06T17:24:06.637Z,4.74
2023-03-06T17:26:34.527Z,4.66
2023-03-06T17:29:01.669Z,4.61
2023-03-06T17:31:29.750Z,4.55
2023-03-06T17:34:00.783Z,4.51
2023-03-06T17:36:30.532Z,4.48
2023-03-06T17:39:00.436Z,4.44
2023-03-06T17:41:27.968Z,4.41
2023-03-06T17:44:02.124Z,4.37
2023-03-06T17:46:29.424Z,4.34
2023-03-06T17:48:56.911Z,4.28
2023-03-06T17:51:24.142Z,4.27
2023-03-06T17:53:52.455Z,4.25
2023-03-06T17:56:19.830Z,4.22
2023-03-06T17:58:47.076Z,4.18
2023-03-06T18:01:30.569Z,4.16
2023-03-06T18:03:57.875Z,4.13
2023-03-06T18:06:30.462Z,4.11
2023-03-06T18:08:57.529Z,4.09
2023-03-06T18:11:24.953Z,4.07
2023-03-06T18:13:52.306Z,4.05
2023-03-06T18:16:23.298Z,4.02
2023-03-06T18:18:55.945Z,4.00
2023-03-06T18:21:24.698Z,3.97
2023-03-06T18:23:52.254Z,3.94
2023-03-06T18:26:25.727Z,3.92
2023-03-06T18:29:02.722Z,3.90
2023-03-06T18:31:36.384Z,3.89
2023-03-06T18:34:15.050Z,3.86
2023-03-06T18:36:43.975Z,3.86
2023-03-06T18:39:13.397Z,3.84
2023-03-06T18:41:41.657Z,3.84
2023-03-06T18:44:08.865Z,3.82
2023-03-06T18:46:38.346Z,3.79
2023-03-06T18:49:06.026Z,3.78
2023-03-06T18:51:33.740Z,3.79
2023-03-06T18:54:02.634Z,3.78
2023-03-06T18:56:30.126Z,3.76
2023-03-06T18:59:00.812Z,3.72
2023-03-06T19:01:31.017Z,3.65
2023-03-06T19:04:02.932Z,3.59
2023-03-06T19:06:30.564Z,3.52
2023-03-06T19:08:58.946Z,3.50
2023-03-06T19:11:27.215Z,3.48
2023-03-06T19:13:54.546Z,3.44
2023-03-06T19:16:25.905Z,3.40
2023-03-06T19:18:55.996Z,3.38
2023-03-06T19:21:26.882Z,3.34
2023-03-06T19:23:54.585Z,3.32
2023-03-06T19:26:22.001Z,3.27
2023-03-06T19:28:49.837Z,3.23
2023-03-06T19:31:20.772Z,3.21
2023-03-06T19:33:49.719Z,3.21
2023-03-06T19:36:18.413Z,3.21
2023-03-06T19:38:46.416Z,3.19
2023-03-06T19:41:14.004Z,3.19
2023-03-06T19:43:42.564Z,3.19
2023-03-06T19:46:14.408Z,3.18
2023-03-06T19:48:42.264Z,3.17
2023-03-06T19:51:10.487Z,3.18
2023-03-06T19:53:39.181Z,3.15
2023-03-06T19:56:08.370Z,3.15
2023-03-06T19:58:35.705Z,3.13
2023-03-06T20:01:08.090Z,3.13
2023-03-06T20:03:35.148Z,3.14
2023-03-06T20:06:03.192Z,3.12
2023-03-06T20:08:30.470Z,3.11
2023-03-06T20:10:57.674Z,3.12
2023-03-06T20:13:24.857Z,3.12
2023-03-06T20:15:52.015Z,3.16
2023-03-06T20:18:19.309Z,3.13
2023-03-06T20:20:57.167Z,3.13
2023-03-06T20:23:24.477Z,3.14
2023-03-06T20:25:51.877Z,3.10
2023-03-06T20:28:19.085Z,3.12
2023-03-06T20:30:46.303Z,3.07
2023-03-06T20:33:15.650Z,3.01
2023-03-06T20:35:43.249Z,2.98
2023-03-06T20:38:11.542Z,2.97
2023-03-06T20:40:39.760Z,2.99
2023-03-06T20:43:07.062Z,2.96
2023-03-06T20:45:34.894Z,2.93
2023-03-06T20:48:02.937Z,2.94
2023-03-06T20:50:30.117Z,2.97
2023-03-06T20:52:59.134Z,3.00
2023-03-06T20:55:26.331Z,3.00
2023-03-06T20:57:53.558Z,3.02
2023-03-06T21:00:21.256Z,3.01
2023-03-06T21:02:48.457Z,3.07
2023-03-06T21:05:15.684Z,3.08
2023-03-06T21:07:42.928Z,3.12
2023-03-06T21:10:10.444Z,3.14
2023-03-06T21:12:37.555Z,3.16
2023-03-06T21:15:05.099Z,3.17
2023-03-06T21:17:32.318Z,3.19
2023-03-06T21:19:59.480Z,3.22
2023-03-06T21:22:26.770Z,3.24
2023-03-06T21:24:53.958Z,3.27
2023-03-06T21:27:21.062Z,3.29
2023-03-06T21:29:48.119Z,3.32
2023-03-06T21:32:15.294Z,3.35
2023-03-06T21:34:42.364Z,3.37
2023-03-06T21:37:09.532Z,3.37
2023-03-06T21:39:36.663Z,3.39
2023-03-06T21:42:03.831Z,3.42
2023-03-06T21:44:30.866Z,3.45
2023-03-06T21:46:58.013Z,3.43
2023-03-06T21:49:26.435Z,3.46
2023-03-06T21:51:53.839Z,3.46
2023-03-06T21:54:21.442Z,3.47
2023-03-06T21:56:48.733Z,3.45
2023-03-06T21:59:15.926Z,3.49
2023-03-06T22:01:43.017Z,3.49
2023-03-06T22:04:10.266Z,3.48
2023-03-06T22:06:38.600Z,3.50
2023-03-06T22:09:05.710Z,3.50
2023-03-06T22:11:37.185Z,3.53
2023-03-06T22:14:05.441Z,3.53
2023-03-06T22:16:33.246Z,3.55
2023-03-06T22:19:00.464Z,3.54
2023-03-06T22:21:27.697Z,3.55
2023-03-06T22:23:57.794Z,3.54
2023-03-06T22:26:26.317Z,3.56
2023-03-06T22:28:53.721Z,3.58
2023-03-06T22:31:26.265Z,3.55
2023-03-06T22:33:54.847Z,3.56
2023-03-06T22:36:23.198Z,3.56
2023-03-06T22:38:55.654Z,3.52
2023-03-06T22:41:23.007Z,3.53
2023-03-06T22:43:50.290Z,3.46
2023-03-06T22:46:18.207Z,3.47
2023-03-06T22:48:45.757Z,3.44
2023-03-06T22:51:18.681Z,3.41
2023-03-06T22:53:46.689Z,3.37
2023-03-06T22:56:16.925Z,3.36
2023-03-06T22:58:45.220Z,3.33
2023-03-06T23:01:18.892Z,3.31
2023-03-06T23:03:51.545Z,3.25
2023-03-06T23:06:36.515Z,3.24
2023-03-06T23:09:13.629Z,3.23
2023-03-06T23:11:59.300Z,3.23
2023-03-06T23:14:50.012Z,3.16
2023-03-06T23:17:35.721Z,3.12
2023-03-06T23:20:22.236Z,3.14
2023-03-06T23:23:07.899Z,3.10
2023-03-06T23:25:41.077Z,3.10
2023-03-06T23:28:08.369Z,3.07
2023-03-06T23:30:35.512Z,2.97
2023-03-06T23:33:02.571Z,3.00
2023-03-06T23:35:29.689Z,3.03
2023-03-06T23:37:57.670Z,3.03
2023-03-06T23:40:25.126Z,3.03
2023-03-06T23:42:52.278Z,3.05
2023-03-06T23:45:19.564Z,3.07
2023-03-06T23:47:46.730Z,3.05
2023-03-06T23:50:14.460Z,2.97
2023-03-06T23:52:41.580Z,3.00
2023-03-06T23:55:09.409Z,3.02
2023-03-06T23:57:36.450Z,3.04
